Lomond, Canada
Current Conditions -  °F | °C
As of 10:00 PM on Sunday 23 Nov 2014 (Local Time) from CYDF Reporting Station
Broken Clouds Broken Clouds  
Wind Chill: 16°   Ceiling: 4000
Heat Index: 27°   Visibility: 15mi
Dew Point: 18°   Wind: 13mph
Humidity: 69%   Direction: 220°SW
Pressure: 29.99"   Gusts: NA
Location:  49.45°N, 57.93°W
Report Text: CYDF 240100Z 22011KT 15SM BKN040 M03/M08 A2999 RMK SC5 SLP155
Loading
Personal Weather Stations






























Interactive Weather Map New forecast layout! Learn more

10-Day Weather Forecast

Advertisements
Track Severe Weather on mobile